Presidente Vargas, Brazil
Current Conditions -  °F | °C
As of 11:00 AM on Thursday 23 Oct 2014 (Local Time) from SBSL Reporting Station
Rain Showers Rain Showers  
Wind Chill: 88°   Ceiling: Unl
Heat Index: 91°   Visibility: 5mi
Dew Point: 68°   Wind: 13mph
Humidity: 52%   Direction: 60°ENE
Pressure: NA   Gusts: NA
Location:  3.41°S, 44.02°W
Report Text: SBSL 231400Z 06011KT 030V100 8000 VCSH SCT017 FEW020TCU 31/20 Q1013
Loading
Personal Weather Stations






























Interactive Weather Map
Tropical Storm Tracking
New forecast layout! Learn more

10-Day Weather Forecast

Advertisements
Track Severe Weather on mobile